Homestead, Pennsylvania
Current Conditions -  °F | °C
As of 12:53 AM on Tuesday 21 Oct 2014 (Local Time) from KAGC Reporting Station
Light Rain Light Rain  
Wind Chill: 50°   Ceiling: 5500
Heat Index: 50°   Visibility: 5mi
Dew Point: 45°   Wind: 7mph
Humidity: 83%   Direction: 190°S
Pressure: 29.86"   Gusts: NA
Location:  40.41°N, 79.91°W
Report Text: KAGC 210453Z AUTO 19006KT 5SM -RA OVC055 10/07 A2986 RMK AO2 RAB0358E08B24 SLP117 P0002 T01000072 401390050 TSNO
Loading
Personal Weather Stations






























Interactive Weather Map
Tropical Storm Tracking
New forecast layout! Learn more

10-Day Weather Forecast

Advertisements
Track Severe Weather on mobile